sensor_id;sensor_type;location;lat;lon;timestamp;P1;durP1;ratioP1;P2;durP2;ratioP2
71769;SDS011;66386;52.122;5.420;2023-02-12T00:00:49;16.13;;;7.40;;
71769;SDS011;66386;52.122;5.420;2023-02-12T00:03:17;14.18;;;7.07;;
71769;SDS011;66386;52.122;5.420;2023-02-12T00:05:43;14.83;;;7.70;;
71769;SDS011;66386;52.122;5.420;2023-02-12T00:08:10;15.00;;;8.07;;
71769;SDS011;66386;52.122;5.420;2023-02-12T00:10:40;16.15;;;8.38;;
71769;SDS011;66386;52.122;5.420;2023-02-12T00:13:10;17.45;;;7.53;;
71769;SDS011;66386;52.122;5.420;2023-02-12T00:15:38;18.42;;;7.97;;
71769;SDS011;66386;52.122;5.420;2023-02-12T00:18:05;16.57;;;7.83;;
71769;SDS011;66386;52.122;5.420;2023-02-12T00:20:32;14.27;;;8.65;;
71769;SDS011;66386;52.122;5.420;2023-02-12T00:22:58;19.05;;;9.23;;
71769;SDS011;66386;52.122;5.420;2023-02-12T00:25:25;19.17;;;8.32;;
71769;SDS011;66386;52.122;5.420;2023-02-12T00:27:51;15.38;;;7.95;;
71769;SDS011;66386;52.122;5.420;2023-02-12T00:30:18;16.60;;;8.43;;
71769;SDS011;66386;52.122;5.420;2023-02-12T00:32:44;15.00;;;7.43;;
71769;SDS011;66386;52.122;5.420;2023-02-12T00:35:11;17.50;;;7.75;;
71769;SDS011;66386;52.122;5.420;2023-02-12T00:37:38;17.10;;;8.07;;
71769;SDS011;66386;52.122;5.420;2023-02-12T00:40:05;16.88;;;8.75;;
71769;SDS011;66386;52.122;5.420;2023-02-12T00:42:32;17.40;;;8.50;;
71769;SDS011;66386;52.122;5.420;2023-02-12T00:44:58;16.05;;;8.20;;
71769;SDS011;66386;52.122;5.420;2023-02-12T00:47:25;18.23;;;8.38;;
71769;SDS011;66386;52.122;5.420;2023-02-12T00:49:51;19.80;;;8.48;;
71769;SDS011;66386;52.122;5.420;2023-02-12T00:52:17;17.73;;;9.30;;
71769;SDS011;66386;52.122;5.420;2023-02-12T00:54:44;15.40;;;7.90;;
71769;SDS011;66386;52.122;5.420;2023-02-12T00:57:10;14.45;;;8.35;;
71769;SDS011;66386;52.122;5.420;2023-02-12T00:59:38;18.83;;;8.85;;
71769;SDS011;66386;52.122;5.420;2023-02-12T01:02:05;17.10;;;7.85;;
71769;SDS011;66386;52.122;5.420;2023-02-12T01:04:31;16.52;;;8.90;;
71769;SDS011;66386;52.122;5.420;2023-02-12T01:06:58;18.07;;;8.03;;
71769;SDS011;66386;52.122;5.420;2023-02-12T01:09:24;18.88;;;8.63;;
71769;SDS011;66386;52.122;5.420;2023-02-12T01:11:51;22.13;;;9.02;;
71769;SDS011;66386;52.122;5.420;2023-02-12T01:14:17;16.60;;;8.07;;
71769;SDS011;66386;52.122;5.420;2023-02-12T01:16:44;17.77;;;9.15;;
71769;SDS011;66386;52.122;5.420;2023-02-12T01:19:10;16.60;;;8.07;;
71769;SDS011;66386;52.122;5.420;2023-02-12T01:21:37;21.20;;;8.50;;
71769;SDS011;66386;52.122;5.420;2023-02-12T01:24:04;16.20;;;9.38;;
71769;SDS011;66386;52.122;5.420;2023-02-12T01:26:31;17.38;;;8.35;;
71769;SDS011;66386;52.122;5.420;2023-02-12T01:28:59;15.82;;;8.55;;
71769;SDS011;66386;52.122;5.420;2023-02-12T01:31:29;18.00;;;8.40;;
71769;SDS011;66386;52.122;5.420;2023-02-12T01:33:58;15.90;;;8.45;;
71769;SDS011;66386;52.122;5.420;2023-02-12T01:36:26;17.17;;;8.95;;
71769;SDS011;66386;52.122;5.420;2023-02-12T01:38:54;19.45;;;9.52;;
71769;SDS011;66386;52.122;5.420;2023-02-12T01:41:22;18.85;;;8.88;;
71769;SDS011;66386;52.122;5.420;2023-02-12T01:44:04;15.17;;;8.47;;
71769;SDS011;66386;52.122;5.420;2023-02-12T01:46:40;19.50;;;8.73;;
71769;SDS011;66386;52.122;5.420;2023-02-12T01:49:13;17.73;;;8.55;;
71769;SDS011;66386;52.122;5.420;2023-02-12T01:51:48;19.42;;;9.10;;
71769;SDS011;66386;52.122;5.420;2023-02-12T01:54:17;17.85;;;9.60;;
71769;SDS011;66386;52.122;5.420;2023-02-12T01:56:46;17.73;;;9.33;;
71769;SDS011;66386;52.122;5.420;2023-02-12T01:59:12;16.75;;;9.35;;
71769;SDS011;66386;52.122;5.420;2023-02-12T02:01:39;18.33;;;8.80;;
71769;SDS011;66386;52.122;5.420;2023-02-12T02:04:07;17.48;;;8.98;;
71769;SDS011;66386;52.122;5.420;2023-02-12T02:06:39;17.23;;;9.02;;
71769;SDS011;66386;52.122;5.420;2023-02-12T02:09:11;16.47;;;9.07;;
71769;SDS011;66386;52.122;5.420;2023-02-12T02:11:38;17.02;;;9.07;;
71769;SDS011;66386;52.122;5.420;2023-02-12T02:14:23;20.92;;;9.00;;
71769;SDS011;66386;52.122;5.420;2023-02-12T02:22:40;20.03;;;8.47;;
71769;SDS011;66386;52.122;5.420;2023-02-12T02:41:15;21.13;;;10.27;;
71769;SDS011;66386;52.122;5.420;2023-02-12T02:43:48;20.10;;;8.68;;
71769;SDS011;66386;52.122;5.420;2023-02-12T02:46:19;22.27;;;9.93;;
71769;SDS011;66386;52.122;5.420;2023-02-12T02:48:53;21.37;;;10.17;;
71769;SDS011;66386;52.122;5.420;2023-02-12T02:51:26;18.02;;;8.98;;
71769;SDS011;66386;52.122;5.420;2023-02-12T02:54:00;19.33;;;9.25;;
71769;SDS011;66386;52.122;5.420;2023-02-12T02:56:28;15.48;;;8.98;;
71769;SDS011;66386;52.122;5.420;2023-02-12T02:59:00;17.20;;;9.00;;
71769;SDS011;66386;52.122;5.420;2023-02-12T03:01:42;18.53;;;9.13;;
71769;SDS011;66386;52.122;5.420;2023-02-12T03:04:38;17.10;;;9.20;;
71769;SDS011;66386;52.122;5.420;2023-02-12T03:07:09;17.55;;;9.45;;
71769;SDS011;66386;52.122;5.420;2023-02-12T03:09:41;19.05;;;8.90;;
71769;SDS011;66386;52.122;5.420;2023-02-12T03:12:14;17.35;;;8.57;;
71769;SDS011;66386;52.122;5.420;2023-02-12T03:14:46;22.63;;;10.33;;
71769;SDS011;66386;52.122;5.420;2023-02-12T03:17:23;19.88;;;10.02;;
71769;SDS011;66386;52.122;5.420;2023-02-12T03:19:56;21.80;;;10.13;;
71769;SDS011;66386;52.122;5.420;2023-02-12T03:22:28;19.02;;;9.57;;
71769;SDS011;66386;52.122;5.420;2023-02-12T03:27:44;22.77;;;11.10;;
71769;SDS011;66386;52.122;5.420;2023-02-12T03:30:15;23.85;;;10.65;;
71769;SDS011;66386;52.122;5.420;2023-02-12T03:32:53;21.92;;;10.75;;
71769;SDS011;66386;52.122;5.420;2023-02-12T03:35:49;22.98;;;10.05;;
71769;SDS011;66386;52.122;5.420;2023-02-12T03:38:43;22.58;;;10.75;;
71769;SDS011;66386;52.122;5.420;2023-02-12T03:41:17;20.80;;;10.43;;
71769;SDS011;66386;52.122;5.420;2023-02-12T03:43:50;23.45;;;11.43;;
71769;SDS011;66386;52.122;5.420;2023-02-12T03:46:29;22.02;;;10.13;;
71769;SDS011;66386;52.122;5.420;2023-02-12T03:49:16;18.25;;;10.18;;
71769;SDS011;66386;52.122;5.420;2023-02-12T03:51:49;25.27;;;12.02;;
71769;SDS011;66386;52.122;5.420;2023-02-12T03:54:16;18.07;;;9.70;;
71769;SDS011;66386;52.122;5.420;2023-02-12T03:56:50;19.67;;;10.10;;
71769;SDS011;66386;52.122;5.420;2023-02-12T03:59:21;19.30;;;10.20;;
71769;SDS011;66386;52.122;5.420;2023-02-12T04:01:49;21.63;;;10.65;;
71769;SDS011;66386;52.122;5.420;2023-02-12T04:04:18;20.15;;;11.50;;
71769;SDS011;66386;52.122;5.420;2023-02-12T04:06:45;21.03;;;10.60;;
71769;SDS011;66386;52.122;5.420;2023-02-12T04:09:14;23.67;;;11.35;;
71769;SDS011;66386;52.122;5.420;2023-02-12T04:28:10;24.50;;;10.82;;
71769;SDS011;66386;52.122;5.420;2023-02-12T04:30:42;22.58;;;10.88;;
71769;SDS011;66386;52.122;5.420;2023-02-12T04:33:14;21.23;;;10.63;;
71769;SDS011;66386;52.122;5.420;2023-02-12T04:35:47;24.05;;;10.77;;
71769;SDS011;66386;52.122;5.420;2023-02-12T04:38:21;21.30;;;10.00;;
71769;SDS011;66386;52.122;5.420;2023-02-12T04:40:52;20.90;;;10.45;;
71769;SDS011;66386;52.122;5.420;2023-02-12T04:43:25;23.05;;;10.55;;
71769;SDS011;66386;52.122;5.420;2023-02-12T04:45:56;20.23;;;10.33;;
71769;SDS011;66386;52.122;5.420;2023-02-12T04:48:23;22.48;;;10.75;;
71769;SDS011;66386;52.122;5.420;2023-02-12T04:50:50;24.13;;;11.80;;
71769;SDS011;66386;52.122;5.420;2023-02-12T04:53:16;20.05;;;10.50;;
71769;SDS011;66386;52.122;5.420;2023-02-12T04:55:43;20.67;;;11.23;;
71769;SDS011;66386;52.122;5.420;2023-02-12T04:58:10;22.53;;;11.70;;
71769;SDS011;66386;52.122;5.420;2023-02-12T05:00:36;23.95;;;11.15;;
71769;SDS011;66386;52.122;5.420;2023-02-12T05:03:03;20.90;;;10.40;;
71769;SDS011;66386;52.122;5.420;2023-02-12T05:05:30;23.75;;;11.63;;
71769;SDS011;66386;52.122;5.420;2023-02-12T05:07:56;21.85;;;10.60;;
71769;SDS011;66386;52.122;5.420;2023-02-12T05:10:23;22.90;;;10.23;;
71769;SDS011;66386;52.122;5.420;2023-02-12T05:12:53;20.80;;;10.48;;
71769;SDS011;66386;52.122;5.420;2023-02-12T05:15:20;23.00;;;11.25;;
71769;SDS011;66386;52.122;5.420;2023-02-12T05:17:47;24.17;;;11.18;;
71769;SDS011;66386;52.122;5.420;2023-02-12T05:20:13;24.85;;;11.82;;
71769;SDS011;66386;52.122;5.420;2023-02-12T05:22:40;24.77;;;11.07;;
71769;SDS011;66386;52.122;5.420;2023-02-12T05:25:06;21.90;;;11.82;;
71769;SDS011;66386;52.122;5.420;2023-02-12T05:27:33;23.52;;;11.88;;
71769;SDS011;66386;52.122;5.420;2023-02-12T05:29:59;23.95;;;10.55;;
71769;SDS011;66386;52.122;5.420;2023-02-12T05:32:26;18.60;;;10.48;;
71769;SDS011;66386;52.122;5.420;2023-02-12T05:34:52;23.40;;;11.97;;
71769;SDS011;66386;52.122;5.420;2023-02-12T05:37:18;21.05;;;11.00;;
71769;SDS011;66386;52.122;5.420;2023-02-12T05:39:47;23.10;;;11.60;;
71769;SDS011;66386;52.122;5.420;2023-02-12T05:42:14;21.50;;;11.25;;
71769;SDS011;66386;52.122;5.420;2023-02-12T05:44:41;23.10;;;10.73;;
71769;SDS011;66386;52.122;5.420;2023-02-12T05:47:07;18.70;;;10.20;;
71769;SDS011;66386;52.122;5.420;2023-02-12T05:49:34;22.33;;;10.60;;
71769;SDS011;66386;52.122;5.420;2023-02-12T05:52:00;20.20;;;11.48;;
71769;SDS011;66386;52.122;5.420;2023-02-12T05:54:26;21.15;;;10.82;;
71769;SDS011;66386;52.122;5.420;2023-02-12T05:56:53;19.58;;;10.25;;
71769;SDS011;66386;52.122;5.420;2023-02-12T05:59:20;23.20;;;11.17;;
71769;SDS011;66386;52.122;5.420;2023-02-12T06:01:49;24.13;;;11.13;;
71769;SDS011;66386;52.122;5.420;2023-02-12T06:04:21;24.42;;;11.88;;
71769;SDS011;66386;52.122;5.420;2023-02-12T06:06:49;24.92;;;11.27;;
71769;SDS011;66386;52.122;5.420;2023-02-12T06:09:21;21.08;;;10.88;;
71769;SDS011;66386;52.122;5.420;2023-02-12T06:11:48;23.60;;;11.30;;
71769;SDS011;66386;52.122;5.420;2023-02-12T06:14:15;24.02;;;12.32;;
71769;SDS011;66386;52.122;5.420;2023-02-12T06:16:43;23.70;;;11.95;;
71769;SDS011;66386;52.122;5.420;2023-02-12T06:19:11;26.50;;;11.82;;
71769;SDS011;66386;52.122;5.420;2023-02-12T06:21:38;24.23;;;12.02;;
71769;SDS011;66386;52.122;5.420;2023-02-12T06:24:04;22.03;;;12.10;;
71769;SDS011;66386;52.122;5.420;2023-02-12T06:26:31;20.95;;;11.30;;
71769;SDS011;66386;52.122;5.420;2023-02-12T06:28:58;24.70;;;11.55;;
71769;SDS011;66386;52.122;5.420;2023-02-12T06:31:25;24.05;;;11.55;;
71769;SDS011;66386;52.122;5.420;2023-02-12T06:33:55;24.77;;;10.90;;
71769;SDS011;66386;52.122;5.420;2023-02-12T06:36:24;24.27;;;12.07;;
71769;SDS011;66386;52.122;5.420;2023-02-12T06:38:50;23.15;;;12.02;;
71769;SDS011;66386;52.122;5.420;2023-02-12T06:41:19;23.42;;;13.05;;
71769;SDS011;66386;52.122;5.420;2023-02-12T06:43:46;20.92;;;11.30;;
71769;SDS011;66386;52.122;5.420;2023-02-12T06:46:13;23.38;;;11.38;;
71769;SDS011;66386;52.122;5.420;2023-02-12T06:48:40;22.40;;;11.40;;
71769;SDS011;66386;52.122;5.420;2023-02-12T06:51:08;22.73;;;10.70;;
71769;SDS011;66386;52.122;5.420;2023-02-12T06:53:37;18.67;;;10.32;;
71769;SDS011;66386;52.122;5.420;2023-02-12T06:56:04;18.80;;;10.52;;
71769;SDS011;66386;52.122;5.420;2023-02-12T06:58:31;23.98;;;11.05;;
71769;SDS011;66386;52.122;5.420;2023-02-12T07:01:08;20.77;;;10.90;;
71769;SDS011;66386;52.122;5.420;2023-02-12T07:03:42;22.10;;;11.32;;
71769;SDS011;66386;52.122;5.420;2023-02-12T07:06:12;23.55;;;11.63;;
71769;SDS011;66386;52.122;5.420;2023-02-12T07:08:39;22.02;;;11.50;;
71769;SDS011;66386;52.122;5.420;2023-02-12T07:11:05;17.83;;;9.90;;
71769;SDS011;66386;52.122;5.420;2023-02-12T07:13:32;19.90;;;9.27;;
71769;SDS011;66386;52.122;5.420;2023-02-12T07:16:03;19.30;;;10.68;;
71769;SDS011;66386;52.122;5.420;2023-02-12T07:18:35;21.75;;;10.98;;
71769;SDS011;66386;52.122;5.420;2023-02-12T07:21:03;20.75;;;11.05;;
71769;SDS011;66386;52.122;5.420;2023-02-12T07:23:30;23.63;;;11.20;;
71769;SDS011;66386;52.122;5.420;2023-02-12T07:25:59;22.70;;;11.03;;
71769;SDS011;66386;52.122;5.420;2023-02-12T07:28:28;18.55;;;10.75;;
71769;SDS011;66386;52.122;5.420;2023-02-12T07:30:54;22.95;;;10.93;;
71769;SDS011;66386;52.122;5.420;2023-02-12T07:33:21;21.33;;;11.10;;
71769;SDS011;66386;52.122;5.420;2023-02-12T07:35:47;17.40;;;10.50;;
71769;SDS011;66386;52.122;5.420;2023-02-12T07:38:13;21.90;;;11.07;;
71769;SDS011;66386;52.122;5.420;2023-02-12T07:40:40;16.33;;;9.85;;
71769;SDS011;66386;52.122;5.420;2023-02-12T07:43:06;18.35;;;10.20;;
71769;SDS011;66386;52.122;5.420;2023-02-12T07:45:33;17.85;;;9.52;;
71769;SDS011;66386;52.122;5.420;2023-02-12T07:47:59;22.05;;;10.70;;
71769;SDS011;66386;52.122;5.420;2023-02-12T07:50:25;19.07;;;9.67;;
71769;SDS011;66386;52.122;5.420;2023-02-12T07:52:52;20.98;;;10.77;;
71769;SDS011;66386;52.122;5.420;2023-02-12T07:55:18;20.58;;;9.65;;
71769;SDS011;66386;52.122;5.420;2023-02-12T07:57:45;21.42;;;10.77;;
71769;SDS011;66386;52.122;5.420;2023-02-12T08:00:11;20.10;;;10.48;;
71769;SDS011;66386;52.122;5.420;2023-02-12T08:02:38;19.53;;;10.23;;
71769;SDS011;66386;52.122;5.420;2023-02-12T08:05:06;23.38;;;10.52;;
71769;SDS011;66386;52.122;5.420;2023-02-12T08:07:32;21.95;;;11.57;;
71769;SDS011;66386;52.122;5.420;2023-02-12T08:09:59;18.23;;;10.13;;
71769;SDS011;66386;52.122;5.420;2023-02-12T08:12:25;18.00;;;10.05;;
71769;SDS011;66386;52.122;5.420;2023-02-12T08:14:52;16.67;;;9.60;;
71769;SDS011;66386;52.122;5.420;2023-02-12T08:17:19;18.95;;;9.90;;
71769;SDS011;66386;52.122;5.420;2023-02-12T08:19:45;19.42;;;9.80;;
71769;SDS011;66386;52.122;5.420;2023-02-12T08:22:12;20.33;;;10.23;;
71769;SDS011;66386;52.122;5.420;2023-02-12T08:24:38;17.55;;;10.05;;
71769;SDS011;66386;52.122;5.420;2023-02-12T08:27:05;23.37;;;11.60;;
71769;SDS011;66386;52.122;5.420;2023-02-12T08:29:31;19.25;;;10.00;;
71769;SDS011;66386;52.122;5.420;2023-02-12T08:31:59;16.10;;;10.07;;
71769;SDS011;66386;52.122;5.420;2023-02-12T08:34:27;18.02;;;9.50;;
71769;SDS011;66386;52.122;5.420;2023-02-12T08:36:56;26.48;;;10.52;;
71769;SDS011;66386;52.122;5.420;2023-02-12T08:39:24;18.43;;;9.90;;
71769;SDS011;66386;52.122;5.420;2023-02-12T08:41:55;21.73;;;9.88;;
71769;SDS011;66386;52.122;5.420;2023-02-12T08:44:23;14.02;;;8.93;;
71769;SDS011;66386;52.122;5.420;2023-02-12T08:46:50;14.25;;;8.43;;
71769;SDS011;66386;52.122;5.420;2023-02-12T08:49:19;17.35;;;9.38;;
71769;SDS011;66386;52.122;5.420;2023-02-12T08:51:51;15.90;;;8.67;;
71769;SDS011;66386;52.122;5.420;2023-02-12T08:54:20;15.80;;;9.30;;
71769;SDS011;66386;52.122;5.420;2023-02-12T08:56:49;19.60;;;9.77;;
71769;SDS011;66386;52.122;5.420;2023-02-12T08:59:19;17.30;;;9.45;;
71769;SDS011;66386;52.122;5.420;2023-02-12T09:01:48;16.65;;;9.73;;
71769;SDS011;66386;52.122;5.420;2023-02-12T09:04:16;20.40;;;10.30;;
71769;SDS011;66386;52.122;5.420;2023-02-12T09:06:46;21.75;;;10.45;;
71769;SDS011;66386;52.122;5.420;2023-02-12T09:09:13;20.05;;;9.68;;
71769;SDS011;66386;52.122;5.420;2023-02-12T09:11:40;19.50;;;10.65;;
71769;SDS011;66386;52.122;5.420;2023-02-12T09:14:10;18.45;;;9.32;;
71769;SDS011;66386;52.122;5.420;2023-02-12T09:16:38;17.00;;;9.93;;
71769;SDS011;66386;52.122;5.420;2023-02-12T09:19:06;18.90;;;10.00;;
71769;SDS011;66386;52.122;5.420;2023-02-12T09:21:33;17.50;;;9.48;;
71769;SDS011;66386;52.122;5.420;2023-02-12T09:24:00;19.73;;;9.75;;
71769;SDS011;66386;52.122;5.420;2023-02-12T09:26:27;18.48;;;10.35;;
71769;SDS011;66386;52.122;5.420;2023-02-12T09:28:54;18.30;;;10.13;;
71769;SDS011;66386;52.122;5.420;2023-02-12T09:31:22;18.17;;;10.30;;
71769;SDS011;66386;52.122;5.420;2023-02-12T09:33:52;18.15;;;10.38;;
71769;SDS011;66386;52.122;5.420;2023-02-12T09:36:23;17.88;;;9.75;;
71769;SDS011;66386;52.122;5.420;2023-02-12T09:38:49;20.75;;;10.50;;
71769;SDS011;66386;52.122;5.420;2023-02-12T09:41:26;18.90;;;10.50;;
71769;SDS011;66386;52.122;5.420;2023-02-12T09:49:07;20.92;;;10.38;;
71769;SDS011;66386;52.122;5.420;2023-02-12T09:51:50;20.15;;;10.10;;
71769;SDS011;66386;52.122;5.420;2023-02-12T09:54:21;19.17;;;10.80;;
71769;SDS011;66386;52.122;5.420;2023-02-12T09:56:54;19.48;;;11.07;;
71769;SDS011;66386;52.122;5.420;2023-02-12T10:02:00;21.52;;;11.95;;
71769;SDS011;66386;52.122;5.420;2023-02-12T10:04:27;22.83;;;13.25;;
71769;SDS011;66386;52.122;5.420;2023-02-12T10:09:54;24.63;;;13.32;;
71769;SDS011;66386;52.122;5.420;2023-02-12T10:12:49;21.92;;;13.07;;
71769;SDS011;66386;52.122;5.420;2023-02-12T10:18:25;22.70;;;12.88;;
71769;SDS011;66386;52.122;5.420;2023-02-12T10:21:15;21.33;;;11.83;;
71769;SDS011;66386;52.122;5.420;2023-02-12T10:23:49;28.08;;;13.50;;
71769;SDS011;66386;52.122;5.420;2023-02-12T10:26:35;27.15;;;13.05;;
71769;SDS011;66386;52.122;5.420;2023-02-12T10:29:13;23.25;;;13.13;;
71769;SDS011;66386;52.122;5.420;2023-02-12T10:31:45;22.67;;;12.02;;
71769;SDS011;66386;52.122;5.420;2023-02-12T10:34:27;20.07;;;11.57;;
71769;SDS011;66386;52.122;5.420;2023-02-12T10:37:20;17.98;;;11.10;;
71769;SDS011;66386;52.122;5.420;2023-02-12T10:40:34;20.23;;;11.35;;
71769;SDS011;66386;52.122;5.420;2023-02-12T10:42:56;20.52;;;11.30;;
71769;SDS011;66386;52.122;5.420;2023-02-12T10:45:27;20.88;;;11.50;;
71769;SDS011;66386;52.122;5.420;2023-02-12T10:53:21;21.52;;;11.73;;
71769;SDS011;66386;52.122;5.420;2023-02-12T10:55:49;19.75;;;11.48;;
71769;SDS011;66386;52.122;5.420;2023-02-12T10:58:34;19.90;;;10.75;;
71769;SDS011;66386;52.122;5.420;2023-02-12T11:01:01;21.67;;;11.40;;
71769;SDS011;66386;52.122;5.420;2023-02-12T11:03:29;20.60;;;11.88;;
71769;SDS011;66386;52.122;5.420;2023-02-12T11:08:39;20.48;;;11.48;;
71769;SDS011;66386;52.122;5.420;2023-02-12T11:11:13;20.50;;;11.30;;
71769;SDS011;66386;52.122;5.420;2023-02-12T11:13:44;19.97;;;11.27;;
71769;SDS011;66386;52.122;5.420;2023-02-12T11:16:32;19.92;;;11.45;;
71769;SDS011;66386;52.122;5.420;2023-02-12T11:19:01;22.83;;;11.82;;
71769;SDS011;66386;52.122;5.420;2023-02-12T11:21:33;22.05;;;11.25;;
71769;SDS011;66386;52.122;5.420;2023-02-12T11:24:20;20.55;;;11.65;;
71769;SDS011;66386;52.122;5.420;2023-02-12T11:27:36;20.33;;;10.93;;
71769;SDS011;66386;52.122;5.420;2023-02-12T11:30:03;21.48;;;11.52;;
71769;SDS011;66386;52.122;5.420;2023-02-12T11:32:31;20.65;;;11.75;;
71769;SDS011;66386;52.122;5.420;2023-02-12T11:35:03;22.10;;;11.48;;
71769;SDS011;66386;52.122;5.420;2023-02-12T11:37:52;20.33;;;11.65;;
71769;SDS011;66386;52.122;5.420;2023-02-12T11:40:23;19.67;;;10.53;;
71769;SDS011;66386;52.122;5.420;2023-02-12T11:42:55;26.13;;;11.40;;
71769;SDS011;66386;52.122;5.420;2023-02-12T11:45:31;17.92;;;10.68;;
71769;SDS011;66386;52.122;5.420;2023-02-12T11:48:00;21.77;;;11.30;;
71769;SDS011;66386;52.122;5.420;2023-02-12T11:50:28;17.92;;;10.35;;
71769;SDS011;66386;52.122;5.420;2023-02-12T11:52:58;19.50;;;10.77;;
71769;SDS011;66386;52.122;5.420;2023-02-12T11:55:32;20.00;;;10.85;;
71769;SDS011;66386;52.122;5.420;2023-02-12T11:58:19;17.88;;;10.48;;
71769;SDS011;66386;52.122;5.420;2023-02-12T12:00:49;20.25;;;10.40;;
71769;SDS011;66386;52.122;5.420;2023-02-12T12:06:21;19.53;;;10.87;;
71769;SDS011;66386;52.122;5.420;2023-02-12T12:11:44;15.63;;;10.20;;
71769;SDS011;66386;52.122;5.420;2023-02-12T12:14:21;16.75;;;9.63;;
71769;SDS011;66386;52.122;5.420;2023-02-12T12:17:26;18.10;;;10.20;;
71769;SDS011;66386;52.122;5.420;2023-02-12T12:20:15;19.27;;;10.23;;
71769;SDS011;66386;52.122;5.420;2023-02-12T12:25:21;16.55;;;9.30;;
71769;SDS011;66386;52.122;5.420;2023-02-12T12:33:04;18.33;;;9.63;;
71769;SDS011;66386;52.122;5.420;2023-02-12T12:35:43;16.23;;;9.55;;
71769;SDS011;66386;52.122;5.420;2023-02-12T12:41:17;16.50;;;9.68;;
71769;SDS011;66386;52.122;5.420;2023-02-12T12:54:50;16.00;;;9.35;;
71769;SDS011;66386;52.122;5.420;2023-02-12T12:57:28;16.38;;;9.82;;
71769;SDS011;66386;52.122;5.420;2023-02-12T13:00:13;15.77;;;9.80;;
71769;SDS011;66386;52.122;5.420;2023-02-12T13:03:01;15.20;;;9.23;;
71769;SDS011;66386;52.122;5.420;2023-02-12T13:13:47;13.80;;;8.53;;
71769;SDS011;66386;52.122;5.420;2023-02-12T13:16:24;15.93;;;9.45;;
71769;SDS011;66386;52.122;5.420;2023-02-12T13:19:00;13.68;;;8.20;;
71769;SDS011;66386;52.122;5.420;2023-02-12T13:27:14;13.10;;;8.63;;
71769;SDS011;66386;52.122;5.420;2023-02-12T13:32:36;13.00;;;7.95;;
71769;SDS011;66386;52.122;5.420;2023-02-12T13:35:19;13.75;;;7.65;;
71769;SDS011;66386;52.122;5.420;2023-02-12T13:37:50;16.33;;;8.63;;
71769;SDS011;66386;52.122;5.420;2023-02-12T13:50:52;15.45;;;8.38;;
71769;SDS011;66386;52.122;5.420;2023-02-12T13:53:36;13.30;;;8.17;;
71769;SDS011;66386;52.122;5.420;2023-02-12T13:58:54;13.85;;;7.95;;
71769;SDS011;66386;52.122;5.420;2023-02-12T14:04:59;12.80;;;8.13;;
71769;SDS011;66386;52.122;5.420;2023-02-12T14:07:09;14.67;;;8.00;;
71769;SDS011;66386;52.122;5.420;2023-02-12T14:09:40;12.27;;;7.88;;
71769;SDS011;66386;52.122;5.420;2023-02-12T14:12:14;14.73;;;8.88;;
71769;SDS011;66386;52.122;5.420;2023-02-12T14:14:53;11.70;;;7.63;;
71769;SDS011;66386;52.122;5.420;2023-02-12T14:20:19;12.03;;;7.37;;
71769;SDS011;66386;52.122;5.420;2023-02-12T14:29:20;10.77;;;6.95;;
71769;SDS011;66386;52.122;5.420;2023-02-12T14:31:38;13.00;;;6.93;;
71769;SDS011;66386;52.122;5.420;2023-02-12T14:39:00;12.95;;;6.68;;
71769;SDS011;66386;52.122;5.420;2023-02-12T14:41:34;12.68;;;6.65;;
71769;SDS011;66386;52.122;5.420;2023-02-12T14:46:51;12.67;;;6.83;;
71769;SDS011;66386;52.122;5.420;2023-02-12T14:54:48;11.93;;;7.18;;
71769;SDS011;66386;52.122;5.420;2023-02-12T14:57:25;13.40;;;7.68;;
71769;SDS011;66386;52.122;5.420;2023-02-12T14:59:55;12.53;;;6.53;;
71769;SDS011;66386;52.122;5.420;2023-02-12T15:02:25;11.93;;;7.07;;
71769;SDS011;66386;52.122;5.420;2023-02-12T15:05:12;15.30;;;7.70;;
71769;SDS011;66386;52.122;5.420;2023-02-12T15:08:04;13.15;;;7.25;;
71769;SDS011;66386;52.122;5.420;2023-02-12T15:16:15;11.57;;;7.32;;
71769;SDS011;66386;52.122;5.420;2023-02-12T15:21:32;13.25;;;7.75;;
71769;SDS011;66386;52.122;5.420;2023-02-12T15:26:33;11.57;;;6.63;;
71769;SDS011;66386;52.122;5.420;2023-02-12T15:29:06;9.90;;;6.93;;
71769;SDS011;66386;52.122;5.420;2023-02-12T15:31:54;14.02;;;6.95;;
71769;SDS011;66386;52.122;5.420;2023-02-12T15:34:24;10.88;;;6.88;;
71769;SDS011;66386;52.122;5.420;2023-02-12T15:36:54;12.30;;;6.85;;
71769;SDS011;66386;52.122;5.420;2023-02-12T15:39:23;10.57;;;6.93;;
71769;SDS011;66386;52.122;5.420;2023-02-12T15:41:50;12.52;;;7.60;;
71769;SDS011;66386;52.122;5.420;2023-02-12T15:46:53;13.75;;;6.88;;
71769;SDS011;66386;52.122;5.420;2023-02-12T15:49:34;13.73;;;7.35;;
71769;SDS011;66386;52.122;5.420;2023-02-12T15:52:03;13.87;;;6.87;;
71769;SDS011;66386;52.122;5.420;2023-02-12T15:54:33;12.55;;;6.60;;
71769;SDS011;66386;52.122;5.420;2023-02-12T15:57:00;9.50;;;6.57;;
71769;SDS011;66386;52.122;5.420;2023-02-12T15:59:34;11.20;;;6.65;;
71769;SDS011;66386;52.122;5.420;2023-02-12T16:02:02;9.80;;;5.55;;
71769;SDS011;66386;52.122;5.420;2023-02-12T16:04:29;11.83;;;5.87;;
71769;SDS011;66386;52.122;5.420;2023-02-12T16:06:59;9.50;;;5.57;;
71769;SDS011;66386;52.122;5.420;2023-02-12T16:09:28;12.23;;;6.63;;
71769;SDS011;66386;52.122;5.420;2023-02-12T16:12:00;12.23;;;6.25;;
71769;SDS011;66386;52.122;5.420;2023-02-12T16:17:26;11.50;;;6.37;;
71769;SDS011;66386;52.122;5.420;2023-02-12T16:19:59;10.85;;;6.70;;
71769;SDS011;66386;52.122;5.420;2023-02-12T16:22:30;10.65;;;6.82;;
71769;SDS011;66386;52.122;5.420;2023-02-12T16:24:59;13.75;;;7.32;;
71769;SDS011;66386;52.122;5.420;2023-02-12T16:27:27;13.32;;;7.75;;
71769;SDS011;66386;52.122;5.420;2023-02-12T16:29:58;13.50;;;7.30;;
71769;SDS011;66386;52.122;5.420;2023-02-12T16:32:33;11.00;;;6.68;;
71769;SDS011;66386;52.122;5.420;2023-02-12T16:47:48;14.10;;;7.50;;
71769;SDS011;66386;52.122;5.420;2023-02-12T16:50:16;12.07;;;6.20;;
71769;SDS011;66386;52.122;5.420;2023-02-12T16:52:43;12.95;;;6.50;;
71769;SDS011;66386;52.122;5.420;2023-02-12T16:55:14;10.77;;;6.50;;
71769;SDS011;66386;52.122;5.420;2023-02-12T16:57:42;17.13;;;7.70;;
71769;SDS011;66386;52.122;5.420;2023-02-12T17:00:14;12.95;;;7.15;;
71769;SDS011;66386;52.122;5.420;2023-02-12T17:02:42;16.10;;;6.85;;
71769;SDS011;66386;52.122;5.420;2023-02-12T17:05:09;15.68;;;7.40;;
71769;SDS011;66386;52.122;5.420;2023-02-12T17:07:36;12.53;;;7.47;;
71769;SDS011;66386;52.122;5.420;2023-02-12T17:10:02;14.43;;;7.22;;
71769;SDS011;66386;52.122;5.420;2023-02-12T17:12:29;14.52;;;7.43;;
71769;SDS011;66386;52.122;5.420;2023-02-12T17:14:55;13.05;;;7.18;;
71769;SDS011;66386;52.122;5.420;2023-02-12T17:17:22;13.07;;;7.13;;
71769;SDS011;66386;52.122;5.420;2023-02-12T17:19:48;12.87;;;6.10;;
71769;SDS011;66386;52.122;5.420;2023-02-12T17:22:16;12.18;;;6.95;;
71769;SDS011;66386;52.122;5.420;2023-02-12T17:24:47;11.77;;;6.88;;
71769;SDS011;66386;52.122;5.420;2023-02-12T17:27:17;12.48;;;7.75;;
71769;SDS011;66386;52.122;5.420;2023-02-12T17:29:44;16.13;;;7.88;;
71769;SDS011;66386;52.122;5.420;2023-02-12T17:32:11;16.30;;;7.93;;
71769;SDS011;66386;52.122;5.420;2023-02-12T17:34:37;12.57;;;7.50;;
71769;SDS011;66386;52.122;5.420;2023-02-12T17:37:14;14.50;;;7.82;;
71769;SDS011;66386;52.122;5.420;2023-02-12T17:39:40;15.25;;;7.93;;
71769;SDS011;66386;52.122;5.420;2023-02-12T17:42:07;14.75;;;7.80;;
71769;SDS011;66386;52.122;5.420;2023-02-12T17:44:33;14.53;;;8.33;;